Time;durP1;ratioP1;P1;durP2;ratioP2;P2;SDS_P1;SDS_P2;PMS_P1;PMS_P2;Temp;Humidity;BMP_temperature;BMP_pressure;BME280_temperature;BME280_humidity;BME280_pressure;Samples;Min_cycle;Max_cycle;Signal;HPM_P1;HPM_P2
2023/07/14 00:00:30;;;;;;;;;;;24.00;60.60;;;;;;5059905;28;19921;-39
2023/07/14 00:02:56;;;;;;;;;;;24.00;60.70;;;;;;5060984;28;20611;-39
2023/07/14 00:05:29;;;;;;;;;;;23.90;61.80;;;;;;5081645;28;19912;-38
2023/07/14 00:07:55;;;;;;;;;;;23.90;61.70;;;;;;5078336;28;19927;-39
2023/07/14 00:10:26;;;;;;;;;;;23.90;61.90;;;;;;5084567;28;19935;-38
2023/07/14 00:12:51;;;;;;;;;;;23.90;61.80;;;;;;5078065;28;19919;-39
2023/07/14 00:15:18;;;;;;;;;;;23.90;61.10;;;;;;5084949;28;19912;-39
2023/07/14 00:17:44;;;;;;;;;;;23.80;61.30;;;;;;5084701;28;19976;-39
2023/07/14 00:20:20;;;;;;;;;;;23.80;61.40;;;;;;5084643;28;19920;-38
2023/07/14 00:22:46;;;;;;;;;;;23.80;60.90;;;;;;5084995;28;20376;-38
2023/07/14 00:25:12;;;;;;;;;;;23.80;60.30;;;;;;5084705;28;19909;-38
2023/07/14 00:27:38;;;;;;;;;;;23.80;60.00;;;;;;5083443;28;19919;-39
2023/07/14 00:30:09;;;;;;;;;;;23.80;60.10;;;;;;5060361;28;19912;-39
2023/07/14 00:32:34;;;;;;;;;;;23.80;60.30;;;;;;5058713;28;19958;-38
2023/07/14 00:35:02;;;;;;;;;;;23.70;60.30;;;;;;5084602;28;19912;-38
2023/07/14 00:37:28;;;;;;;;;;;23.70;60.60;;;;;;5077977;28;20381;-38
2023/07/14 00:39:54;;;;;;;;;;;23.70;59.90;;;;;;5082355;28;19997;-38
2023/07/14 00:42:20;;;;;;;;;;;23.70;59.80;;;;;;5081324;28;19912;-38
2023/07/14 00:44:46;;;;;;;;;;;23.70;60.30;;;;;;5084482;28;19912;-38
2023/07/14 00:47:29;;;;;;;;;;;23.70;60.00;;;;;;5063439;28;19915;-38
2023/07/14 00:49:55;;;;;;;;;;;23.60;60.30;;;;;;5077537;28;19922;-38
2023/07/14 00:52:23;;;;;;;;;;;23.60;60.50;;;;;;5066437;28;19932;-38
2023/07/14 00:54:51;;;;;;;;;;;23.60;60.70;;;;;;5080635;28;19912;-39
2023/07/14 00:57:17;;;;;;;;;;;23.60;60.00;;;;;;5080201;28;19939;-39
2023/07/14 00:59:43;;;;;;;;;;;23.60;63.10;;;;;;5059828;28;19927;-38
2023/07/14 01:02:08;;;;;;;;;;;23.60;65.00;;;;;;5084375;28;20003;-39
2023/07/14 01:04:34;;;;;;;;;;;23.50;65.10;;;;;;5083208;28;19912;-39
2023/07/14 01:07:00;;;;;;;;;;;23.60;65.30;;;;;;5082883;28;19918;-39
2023/07/14 01:09:26;;;;;;;;;;;23.60;65.50;;;;;;5065243;28;19908;-39
2023/07/14 01:11:52;;;;;;;;;;;23.50;65.80;;;;;;5080548;28;19913;-38
2023/07/14 01:14:31;;;;;;;;;;;23.60;65.60;;;;;;5083844;28;19917;-38
2023/07/14 01:16:57;;;;;;;;;;;23.60;66.90;;;;;;5077432;28;19912;-39
2023/07/14 01:19:36;;;;;;;;;;;23.60;66.40;;;;;;5083194;28;20443;-39
2023/07/14 01:22:15;;;;;;;;;;;23.60;66.80;;;;;;5060507;28;19931;-38
2023/07/14 01:24:43;;;;;;;;;;;23.60;67.00;;;;;;5083523;28;19912;-39
2023/07/14 01:27:09;;;;;;;;;;;23.70;67.50;;;;;;5065601;28;19946;-39
2023/07/14 01:29:35;;;;;;;;;;;23.70;67.70;;;;;;5077670;28;19908;-39
2023/07/14 01:32:01;;;;;;;;;;;23.70;68.00;;;;;;5083666;28;19933;-38
2023/07/14 01:34:28;;;;;;;;;;;23.70;68.30;;;;;;5082989;28;19912;-38
2023/07/14 01:36:58;;;;;;;;;;;23.70;68.50;;;;;;5080162;28;19908;-38
2023/07/14 01:39:28;;;;;;;;;;;23.80;68.80;;;;;;5082852;28;19917;-38
2023/07/14 01:41:54;;;;;;;;;;;23.80;68.90;;;;;;5080131;28;20371;-39
2023/07/14 01:44:20;;;;;;;;;;;23.80;69.00;;;;;;5083541;28;19908;-39
2023/07/14 01:46:46;;;;;;;;;;;23.80;69.10;;;;;;5050931;28;19975;-39
2023/07/14 01:49:25;;;;;;;;;;;23.90;69.20;;;;;;5082075;28;19915;-39
2023/07/14 01:51:51;;;;;;;;;;;23.90;69.30;;;;;;5063080;28;19919;-39
2023/07/14 01:54:28;;;;;;;;;;;23.90;69.30;;;;;;5065299;28;20314;-39
2023/07/14 01:56:54;;;;;;;;;;;23.90;69.50;;;;;;5052963;28;19980;-39
2023/07/14 01:59:21;;;;;;;;;;;24.00;69.60;;;;;;5058306;28;19978;-38
2023/07/14 02:01:46;;;;;;;;;;;24.00;69.60;;;;;;5057983;28;19908;-38
2023/07/14 02:04:25;;;;;;;;;;;24.00;69.70;;;;;;5083278;28;19934;-39
2023/07/14 02:06:51;;;;;;;;;;;24.00;69.80;;;;;;5064851;28;19916;-39
2023/07/14 02:09:18;;;;;;;;;;;24.00;69.80;;;;;;5082884;28;20035;-38
2023/07/14 02:11:44;;;;;;;;;;;24.10;69.90;;;;;;5079096;28;19919;-39
2023/07/14 02:14:12;;;;;;;;;;;24.10;69.90;;;;;;5065025;28;19912;-39
2023/07/14 02:16:38;;;;;;;;;;;24.10;70.00;;;;;;5064098;28;19968;-38
2023/07/14 02:19:04;;;;;;;;;;;24.10;69.90;;;;;;5082407;28;19929;-38
2023/07/14 02:21:30;;;;;;;;;;;24.10;70.00;;;;;;5064844;28;19972;-39
2023/07/14 02:23:56;;;;;;;;;;;24.10;69.90;;;;;;5063530;28;19930;-39
2023/07/14 02:26:25;;;;;;;;;;;24.20;70.10;;;;;;5082507;28;20003;-38
2023/07/14 02:28:50;;;;;;;;;;;24.20;70.10;;;;;;5075357;28;19973;-39
2023/07/14 02:31:40;;;;;;;;;;;24.20;70.00;;;;;;5083143;28;20353;-39
2023/07/14 02:34:08;;;;;;;;;;;24.20;70.10;;;;;;5066563;28;19916;-38
2023/07/14 02:36:36;;;;;;;;;;;24.20;70.10;;;;;;5064511;28;19913;-38
2023/07/14 02:39:03;;;;;;;;;;;24.30;70.10;;;;;;5064621;28;19916;-39
2023/07/14 02:41:29;;;;;;;;;;;24.30;70.20;;;;;;5078722;28;20368;-38
2023/07/14 02:43:57;;;;;;;;;;;24.30;70.20;;;;;;5064766;28;19912;-39
2023/07/14 02:46:24;;;;;;;;;;;24.30;70.30;;;;;;5082780;28;19962;-39
2023/07/14 02:48:50;;;;;;;;;;;24.30;70.20;;;;;;5081874;28;19909;-39
2023/07/14 02:51:16;;;;;;;;;;;24.30;70.30;;;;;;5079708;28;19916;-38
2023/07/14 02:53:42;;;;;;;;;;;24.30;70.30;;;;;;5082179;28;19939;-38
2023/07/14 02:56:08;;;;;;;;;;;24.30;70.30;;;;;;5082432;28;19912;-39
2023/07/14 02:58:33;;;;;;;;;;;24.40;70.40;;;;;;5082434;28;19944;-40
2023/07/14 03:01:00;;;;;;;;;;;24.40;70.50;;;;;;5079457;28;19912;-39
2023/07/14 03:03:26;;;;;;;;;;;24.40;70.50;;;;;;5079966;28;19912;-39
2023/07/14 03:05:52;;;;;;;;;;;24.40;70.50;;;;;;5060321;28;19913;-38
2023/07/14 03:08:18;;;;;;;;;;;24.40;70.60;;;;;;5052832;28;19959;-39
2023/07/14 03:10:44;;;;;;;;;;;24.40;70.60;;;;;;5077978;28;19912;-39
2023/07/14 03:13:10;;;;;;;;;;;24.40;70.60;;;;;;5082895;28;19927;-39
2023/07/14 03:15:36;;;;;;;;;;;24.40;70.60;;;;;;5082177;28;19974;-39
2023/07/14 03:18:02;;;;;;;;;;;24.40;70.70;;;;;;5082634;28;19979;-39
2023/07/14 03:20:28;;;;;;;;;;;24.50;70.60;;;;;;5081700;28;19954;-38
2023/07/14 03:22:54;;;;;;;;;;;24.50;70.70;;;;;;5082334;28;19912;-38
2023/07/14 03:25:20;;;;;;;;;;;24.50;70.60;;;;;;5082101;28;19930;-39
2023/07/14 03:27:46;;;;;;;;;;;24.50;70.70;;;;;;5079270;28;19967;-38
2023/07/14 03:30:12;;;;;;;;;;;24.50;70.60;;;;;;5074364;28;19989;-39
2023/07/14 03:32:39;;;;;;;;;;;24.50;70.60;;;;;;5084365;28;19912;-39
2023/07/14 03:35:05;;;;;;;;;;;24.50;70.60;;;;;;5081612;28;19912;-39
2023/07/14 03:37:31;;;;;;;;;;;24.50;70.50;;;;;;5080826;28;20324;-38
2023/07/14 03:39:57;;;;;;;;;;;24.50;70.60;;;;;;5083823;28;19979;-39
2023/07/14 03:42:22;;;;;;;;;;;24.50;70.60;;;;;;5083379;28;19912;-37
2023/07/14 03:44:48;;;;;;;;;;;24.50;70.50;;;;;;5085320;28;19912;-39
2023/07/14 03:47:14;;;;;;;;;;;24.50;70.50;;;;;;5085974;28;20373;-39
2023/07/14 03:49:40;;;;;;;;;;;24.50;70.50;;;;;;5085319;28;19916;-38
2023/07/14 03:52:06;;;;;;;;;;;24.50;70.70;;;;;;5085413;28;19935;-39
2023/07/14 03:54:32;;;;;;;;;;;24.60;70.80;;;;;;5085141;28;19986;-39
2023/07/14 03:57:01;;;;;;;;;;;24.50;70.80;;;;;;5085576;28;19912;-38
2023/07/14 03:59:27;;;;;;;;;;;24.60;70.80;;;;;;5080766;28;19916;-38
2023/07/14 04:01:53;;;;;;;;;;;24.60;71.60;;;;;;5078233;28;19908;-39
2023/07/14 04:04:19;;;;;;;;;;;24.60;70.80;;;;;;5085133;28;19928;-38
2023/07/14 04:06:45;;;;;;;;;;;24.60;70.90;;;;;;5084307;28;19919;-39
2023/07/14 04:09:11;;;;;;;;;;;24.60;70.90;;;;;;5085281;28;19959;-38
2023/07/14 04:11:37;;;;;;;;;;;24.60;70.90;;;;;;5084355;28;19912;-39
2023/07/14 04:14:03;;;;;;;;;;;24.60;70.80;;;;;;5083523;28;19908;-38
2023/07/14 04:16:29;;;;;;;;;;;24.60;70.70;;;;;;5084759;28;19908;-38
2023/07/14 04:18:55;;;;;;;;;;;24.60;70.70;;;;;;5084720;28;20023;-38
2023/07/14 04:21:24;;;;;;;;;;;24.60;70.60;;;;;;5084263;28;19913;-39
2023/07/14 04:23:52;;;;;;;;;;;24.60;70.70;;;;;;5084399;28;19940;-39
2023/07/14 04:26:18;;;;;;;;;;;24.60;70.70;;;;;;5084907;28;19912;-38
2023/07/14 04:28:44;;;;;;;;;;;24.60;70.70;;;;;;5078252;28;19965;-39
2023/07/14 04:31:10;;;;;;;;;;;24.60;70.70;;;;;;5084511;28;19936;-38
2023/07/14 04:33:36;;;;;;;;;;;24.60;70.60;;;;;;5084239;28;20384;-39
2023/07/14 04:36:02;;;;;;;;;;;24.60;70.80;;;;;;5079782;28;19947;-38
2023/07/14 04:38:29;;;;;;;;;;;24.60;70.80;;;;;;5068978;28;19916;-39
2023/07/14 04:40:55;;;;;;;;;;;24.60;70.90;;;;;;5067713;28;19932;-38
2023/07/14 04:43:21;;;;;;;;;;;24.60;70.90;;;;;;5067300;28;19913;-38
2023/07/14 04:45:47;;;;;;;;;;;24.60;70.90;;;;;;5050903;28;19997;-38
2023/07/14 04:48:13;;;;;;;;;;;24.60;70.90;;;;;;5067739;28;19912;-38
2023/07/14 04:50:39;;;;;;;;;;;24.60;71.00;;;;;;5069146;28;19958;-38
2023/07/14 04:53:05;;;;;;;;;;;24.60;71.00;;;;;;5068519;28;20014;-38
2023/07/14 04:55:31;;;;;;;;;;;24.60;70.90;;;;;;5067772;28;19912;-38
2023/07/14 04:57:57;;;;;;;;;;;24.60;70.90;;;;;;5067883;28;19978;-38
2023/07/14 05:00:23;;;;;;;;;;;24.60;70.80;;;;;;5067976;28;20398;-39
2023/07/14 05:02:49;;;;;;;;;;;24.60;70.70;;;;;;5067888;28;20328;-39
2023/07/14 05:05:18;;;;;;;;;;;24.60;70.50;;;;;;5068910;28;19916;-38
2023/07/14 05:07:44;;;;;;;;;;;24.60;70.40;;;;;;5083460;28;19924;-38
2023/07/14 05:10:10;;;;;;;;;;;24.60;70.40;;;;;;5081635;28;19934;-39
2023/07/14 05:12:36;;;;;;;;;;;24.60;70.30;;;;;;5082106;28;19912;-38
2023/07/14 05:15:04;;;;;;;;;;;24.60;70.30;;;;;;5084140;28;19913;-38
2023/07/14 05:17:30;;;;;;;;;;;24.60;70.30;;;;;;5084105;28;19955;-38
2023/07/14 05:19:56;;;;;;;;;;;24.60;70.30;;;;;;5083323;28;19920;-39
2023/07/14 05:22:22;;;;;;;;;;;24.60;70.70;;;;;;5083359;28;19912;-39
2023/07/14 05:24:48;;;;;;;;;;;24.60;71.00;;;;;;5083573;28;19920;-39
2023/07/14 05:27:13;;;;;;;;;;;24.60;71.20;;;;;;5079969;28;19975;-39
2023/07/14 05:29:39;;;;;;;;;;;24.60;71.30;;;;;;5076655;28;19954;-38
2023/07/14 05:32:05;;;;;;;;;;;24.60;71.20;;;;;;5083512;28;19917;-39
2023/07/14 05:34:31;;;;;;;;;;;24.60;71.40;;;;;;5083207;28;19915;-39
2023/07/14 05:36:57;;;;;;;;;;;24.60;71.20;;;;;;5074203;28;19912;-38
2023/07/14 05:39:23;;;;;;;;;;;24.60;71.20;;;;;;5082221;28;19991;-38
2023/07/14 05:41:49;;;;;;;;;;;24.60;70.80;;;;;;5079108;28;20335;-39
2023/07/14 05:44:15;;;;;;;;;;;24.60;70.60;;;;;;5083482;28;19912;-38
2023/07/14 05:46:40;;;;;;;;;;;24.60;70.50;;;;;;5081669;28;19916;-38
2023/07/14 05:49:06;;;;;;;;;;;24.60;70.50;;;;;;5081907;28;19918;-38
2023/07/14 05:51:32;;;;;;;;;;;24.60;70.30;;;;;;5082808;28;19930;-39
2023/07/14 05:53:58;;;;;;;;;;;24.60;70.30;;;;;;5083146;28;19909;-38
2023/07/14 05:56:25;;;;;;;;;;;24.60;70.30;;;;;;5082967;28;19934;-39
2023/07/14 05:58:50;;;;;;;;;;;24.60;70.20;;;;;;5076497;28;19912;-38
2023/07/14 06:01:16;;;;;;;;;;;24.60;70.50;;;;;;5083513;28;20423;-39
2023/07/14 06:03:42;;;;;;;;;;;24.60;70.90;;;;;;5064902;28;19933;-39
2023/07/14 06:06:08;;;;;;;;;;;24.60;71.10;;;;;;5078381;28;19948;-39
2023/07/14 06:08:34;;;;;;;;;;;24.60;71.30;;;;;;5082614;28;19942;-38
2023/07/14 06:11:00;;;;;;;;;;;24.60;71.40;;;;;;5083160;28;19916;-38
2023/07/14 06:13:26;;;;;;;;;;;24.60;71.50;;;;;;5083125;28;19919;-38
2023/07/14 06:15:51;;;;;;;;;;;24.60;71.50;;;;;;5083107;28;20556;-39
2023/07/14 06:18:17;;;;;;;;;;;24.60;71.50;;;;;;5083263;28;19918;-38
2023/07/14 06:20:44;;;;;;;;;;;24.60;71.50;;;;;;5082087;28;19917;-38
2023/07/14 06:23:10;;;;;;;;;;;24.60;71.40;;;;;;5083325;28;19947;-38
2023/07/14 06:25:36;;;;;;;;;;;24.60;71.00;;;;;;5082710;28;19908;-39
2023/07/14 06:28:02;;;;;;;;;;;24.60;70.70;;;;;;5078671;28;19913;-39
2023/07/14 06:30:28;;;;;;;;;;;24.60;70.70;;;;;;5080269;28;19912;-39
2023/07/14 06:32:54;;;;;;;;;;;24.60;71.30;;;;;;5082824;28;19920;-38
2023/07/14 06:35:20;;;;;;;;;;;24.60;70.40;;;;;;5082516;28;19908;-39
2023/07/14 06:37:46;;;;;;;;;;;24.60;70.40;;;;;;5082377;28;19912;-39
2023/07/14 06:40:12;;;;;;;;;;;24.60;70.40;;;;;;5079898;28;19916;-39
2023/07/14 06:42:38;;;;;;;;;;;24.60;70.20;;;;;;5079765;28;19908;-38
2023/07/14 06:45:04;;;;;;;;;;;24.60;70.30;;;;;;5082100;28;19919;-38
2023/07/14 06:47:33;;;;;;;;;;;24.60;70.90;;;;;;5075289;28;19934;-38
2023/07/14 06:49:59;;;;;;;;;;;24.60;71.20;;;;;;5082299;28;20376;-38
2023/07/14 06:52:25;;;;;;;;;;;24.60;71.20;;;;;;5082566;28;20490;-39
2023/07/14 06:54:52;;;;;;;;;;;24.60;71.30;;;;;;5082377;28;20646;-39
2023/07/14 06:57:18;;;;;;;;;;;24.60;71.30;;;;;;5082452;28;19909;-39
2023/07/14 06:59:44;;;;;;;;;;;24.60;71.40;;;;;;5082017;28;19926;-38
2023/07/14 07:02:11;;;;;;;;;;;24.60;72.00;;;;;;5082634;28;20003;-38
2023/07/14 07:04:37;;;;;;;;;;;24.60;71.30;;;;;;5085053;28;19912;-39
2023/07/14 07:07:04;;;;;;;;;;;24.60;71.20;;;;;;5085660;28;19939;-39
2023/07/14 07:09:30;;;;;;;;;;;24.50;70.90;;;;;;5085649;28;19908;-38
2023/07/14 07:11:55;;;;;;;;;;;24.50;70.70;;;;;;5086358;28;19959;-38
2023/07/14 07:14:21;;;;;;;;;;;24.50;70.60;;;;;;5085935;28;19912;-39
2023/07/14 07:16:47;;;;;;;;;;;24.50;70.60;;;;;;5086205;28;19948;-39
2023/07/14 07:19:14;;;;;;;;;;;24.50;70.50;;;;;;5086080;28;19923;-38
2023/07/14 07:21:40;;;;;;;;;;;24.50;70.50;;;;;;5085394;28;20031;-38
2023/07/14 07:24:06;;;;;;;;;;;24.50;70.50;;;;;;5086043;28;19927;-39
2023/07/14 07:26:32;;;;;;;;;;;24.50;70.40;;;;;;5085689;28;19931;-38
2023/07/14 07:28:58;;;;;;;;;;;24.50;70.50;;;;;;5086037;28;19913;-39
2023/07/14 07:31:25;;;;;;;;;;;24.50;70.60;;;;;;5085468;28;19913;-38
2023/07/14 07:33:51;;;;;;;;;;;24.50;71.00;;;;;;5066002;28;20285;-38
2023/07/14 07:36:17;;;;;;;;;;;24.50;71.10;;;;;;5083699;28;19931;-38
2023/07/14 07:38:43;;;;;;;;;;;24.50;71.00;;;;;;5085492;28;19999;-39
2023/07/14 07:41:09;;;;;;;;;;;24.50;71.10;;;;;;5083365;28;19920;-39
2023/07/14 07:43:35;;;;;;;;;;;24.50;71.10;;;;;;5085704;28;19923;-38
2023/07/14 07:46:01;;;;;;;;;;;24.50;71.20;;;;;;5085315;28;19912;-38
2023/07/14 07:48:27;;;;;;;;;;;24.50;71.20;;;;;;5083705;28;19915;-39
2023/07/14 07:50:53;;;;;;;;;;;24.50;71.20;;;;;;5085225;28;19955;-39
2023/07/14 07:53:19;;;;;;;;;;;24.50;71.10;;;;;;5085592;28;20011;-39
2023/07/14 07:55:54;;;;;;;;;;;24.50;71.00;;;;;;5085415;28;19916;-39
2023/07/14 07:58:24;;;;;;;;;;;24.50;70.90;;;;;;5079103;28;19955;-38
2023/07/14 08:01:00;;;;;;;;;;;24.50;70.80;;;;;;5084358;28;19920;-38
2023/07/14 08:03:26;;;;;;;;;;;24.50;70.90;;;;;;5085237;28;19916;-38
2023/07/14 08:05:54;;;;;;;;;;;24.50;70.90;;;;;;5066880;28;19912;-38
2023/07/14 08:08:21;;;;;;;;;;;24.50;70.80;;;;;;5085358;28;19946;-39
2023/07/14 08:10:46;;;;;;;;;;;24.50;70.80;;;;;;5079250;28;19991;-38
2023/07/14 08:13:13;;;;;;;;;;;24.50;70.80;;;;;;5083477;28;19927;-39
2023/07/14 08:15:39;;;;;;;;;;;24.50;71.00;;;;;;5077607;28;19908;-38
2023/07/14 08:18:06;;;;;;;;;;;24.50;71.10;;;;;;5085264;28;19994;-38
2023/07/14 08:20:37;;;;;;;;;;;24.50;71.10;;;;;;5084246;28;20392;-38
2023/07/14 08:23:05;;;;;;;;;;;24.50;71.20;;;;;;5085192;28;19932;-38
2023/07/14 08:25:31;;;;;;;;;;;24.50;71.30;;;;;;5085007;28;20364;-39
2023/07/14 08:27:57;;;;;;;;;;;24.50;71.30;;;;;;5084848;28;20686;-39
2023/07/14 08:30:23;;;;;;;;;;;24.40;71.30;;;;;;5084135;28;19908;-38
2023/07/14 08:32:49;;;;;;;;;;;24.40;71.40;;;;;;5084888;28;19955;-38
2023/07/14 08:35:16;;;;;;;;;;;24.40;71.40;;;;;;5084824;28;19912;-39
2023/07/14 08:37:41;;;;;;;;;;;24.40;71.30;;;;;;5084818;28;19973;-39
2023/07/14 08:40:11;;;;;;;;;;;24.40;71.30;;;;;;5084609;28;20401;-39
2023/07/14 08:42:55;;;;;;;;;;;24.40;71.30;;;;;;5083999;28;19962;-38
2023/07/14 08:45:32;;;;;;;;;;;24.40;71.10;;;;;;5083786;28;19975;-39
2023/07/14 08:48:19;;;;;;;;;;;24.40;71.30;;;;;;5057529;28;19912;-38
2023/07/14 08:50:45;;;;;;;;;;;24.40;71.10;;;;;;5053460;28;19912;-38
2023/07/14 08:53:13;;;;;;;;;;;24.40;71.00;;;;;;5084091;28;19912;-38
2023/07/14 08:55:38;;;;;;;;;;;24.40;71.00;;;;;;5084034;28;19972;-39
2023/07/14 08:58:10;;;;;;;;;;;24.40;71.20;;;;;;5080148;28;19908;-38
2023/07/14 09:00:56;;;;;;;;;;;24.40;71.30;;;;;;5082792;28;20500;-38
2023/07/14 09:03:22;;;;;;;;;;;24.40;71.30;;;;;;5083882;28;19935;-39
2023/07/14 09:05:57;;;;;;;;;;;24.40;71.50;;;;;;5083466;28;19912;-38
2023/07/14 09:08:26;;;;;;;;;;;24.40;71.50;;;;;;5083981;28;19920;-39
2023/07/14 09:10:55;;;;;;;;;;;24.40;71.50;;;;;;5080054;28;19908;-39
2023/07/14 09:13:42;;;;;;;;;;;24.40;71.50;;;;;;5083675;28;19912;-39
2023/07/14 09:16:09;;;;;;;;;;;24.30;71.50;;;;;;5060959;28;20368;-38
2023/07/14 09:18:47;;;;;;;;;;;24.30;71.40;;;;;;5065408;28;19932;-38
2023/07/14 09:21:21;;;;;;;;;;;24.30;71.50;;;;;;5083769;28;20344;-39
2023/07/14 09:23:47;;;;;;;;;;;24.30;71.30;;;;;;5083888;28;19926;-39
2023/07/14 09:26:15;;;;;;;;;;;24.30;71.30;;;;;;5083557;28;19959;-38
2023/07/14 09:28:45;;;;;;;;;;;24.30;72.00;;;;;;5076746;28;19916;-39
2023/07/14 09:31:31;;;;;;;;;;;24.30;71.20;;;;;;5083831;28;19972;-38
2023/07/14 09:33:59;;;;;;;;;;;24.30;71.20;;;;;;5074829;28;19912;-38
2023/07/14 09:36:25;;;;;;;;;;;24.30;71.20;;;;;;5082933;28;20014;-38
2023/07/14 09:38:52;;;;;;;;;;;24.30;71.20;;;;;;5080539;28;20164;-38
2023/07/14 09:41:18;;;;;;;;;;;24.30;71.20;;;;;;5065731;28;19916;-39
2023/07/14 09:44:04;;;;;;;;;;;24.30;71.40;;;;;;5022747;28;20360;-39
2023/07/14 09:46:37;;;;;;;;;;;24.30;71.50;;;;;;5021676;28;19909;-39
2023/07/14 09:49:10;;;;;;;;;;;24.30;71.60;;;;;;5004531;28;19913;-38
2023/07/14 09:51:36;;;;;;;;;;;24.30;71.60;;;;;;5019080;28;19921;-39
2023/07/14 09:54:05;;;;;;;;;;;24.30;71.60;;;;;;5016841;28;19910;-38
2023/07/14 09:56:38;;;;;;;;;;;24.30;71.60;;;;;;5002271;28;19956;-38
2023/07/14 09:59:04;;;;;;;;;;;24.30;71.70;;;;;;5021042;28;19914;-38
2023/07/14 10:01:30;;;;;;;;;;;24.30;71.70;;;;;;5020707;28;19909;-38
2023/07/14 10:03:58;;;;;;;;;;;24.30;71.80;;;;;;5020665;28;19917;-39
2023/07/14 10:06:26;;;;;;;;;;;24.20;71.70;;;;;;5003650;28;19909;-37
2023/07/14 10:08:54;;;;;;;;;;;24.30;71.60;;;;;;5014842;28;19925;-38
2023/07/14 10:11:23;;;;;;;;;;;24.30;71.60;;;;;;5025757;28;19909;-39
2023/07/14 10:13:59;;;;;;;;;;;24.30;71.60;;;;;;5020263;28;20797;-38
2023/07/14 10:16:25;;;;;;;;;;;24.20;71.50;;;;;;5020632;28;19924;-38
2023/07/14 10:18:51;;;;;;;;;;;24.20;71.40;;;;;;5020610;28;19923;-38
2023/07/14 10:21:22;;;;;;;;;;;24.20;71.50;;;;;;5051719;28;19975;-38
2023/07/14 10:23:58;;;;;;;;;;;24.20;71.50;;;;;;5082519;28;20502;-39
2023/07/14 10:26:24;;;;;;;;;;;24.20;71.50;;;;;;5082673;28;19952;-38
2023/07/14 10:28:50;;;;;;;;;;;24.20;71.70;;;;;;5056649;28;20591;-38
2023/07/14 10:31:35;;;;;;;;;;;24.20;71.80;;;;;;5065201;28;19939;-38
2023/07/14 10:34:01;;;;;;;;;;;24.20;71.80;;;;;;5076278;28;20381;-38
2023/07/14 10:36:34;;;;;;;;;;;24.20;71.80;;;;;;5082233;28;19943;-38
2023/07/14 10:39:06;;;;;;;;;;;24.20;71.90;;;;;;5057423;28;19914;-38
2023/07/14 10:41:32;;;;;;;;;;;24.20;71.80;;;;;;5065371;28;19935;-38
2023/07/14 10:44:00;;;;;;;;;;;24.20;71.90;;;;;;5086553;28;20274;-38
2023/07/14 10:46:29;;;;;;;;;;;24.20;72.00;;;;;;5086423;28;19923;-38
2023/07/14 10:48:57;;;;;;;;;;;24.20;71.90;;;;;;5068515;28;19928;-39
2023/07/14 10:51:23;;;;;;;;;;;24.20;72.00;;;;;;5065641;28;19931;-38
2023/07/14 10:53:50;;;;;;;;;;;24.20;71.90;;;;;;5086229;28;20435;-38
2023/07/14 10:56:24;;;;;;;;;;;24.20;71.80;;;;;;5068353;28;20003;-38
2023/07/14 10:58:58;;;;;;;;;;;24.20;71.90;;;;;;5085694;28;19983;-39
2023/07/14 11:01:32;;;;;;;;;;;24.20;71.80;;;;;;5086436;28;20022;-39
2023/07/14 11:04:00;;;;;;;;;;;24.10;71.70;;;;;;5079757;28;19912;-38
2023/07/14 11:06:29;;;;;;;;;;;24.10;71.90;;;;;;5068080;28;19916;-39
2023/07/14 11:08:55;;;;;;;;;;;24.10;71.70;;;;;;5059999;28;19928;-38
2023/07/14 11:11:39;;;;;;;;;;;24.10;71.80;;;;;;5067023;28;19935;-38
2023/07/14 11:14:22;;;;;;;;;;;24.10;72.00;;;;;;5079143;28;19916;-38
2023/07/14 11:17:06;;;;;;;;;;;24.10;72.00;;;;;;5084865;28;19916;-38
2023/07/14 11:19:47;;;;;;;;;;;24.10;72.00;;;;;;5066194;28;20007;-38
2023/07/14 11:22:29;;;;;;;;;;;24.10;72.20;;;;;;5066533;28;20014;-38
2023/07/14 11:25:05;;;;;;;;;;;24.10;72.00;;;;;;5066689;28;19918;-38
2023/07/14 11:27:35;;;;;;;;;;;24.10;72.20;;;;;;5066846;28;19979;-38
2023/07/14 11:30:09;;;;;;;;;;;24.10;72.20;;;;;;5078395;28;19920;-39
2023/07/14 11:32:41;;;;;;;;;;;24.10;72.10;;;;;;5084515;28;19916;-39
2023/07/14 11:35:16;;;;;;;;;;;24.10;72.10;;;;;;5059662;28;19912;-38
2023/07/14 11:38:00;;;;;;;;;;;24.10;72.10;;;;;;5066211;28;21026;-38
2023/07/14 11:40:26;;;;;;;;;;;24.10;72.00;;;;;;5076314;28;20392;-38
2023/07/14 11:42:54;;;;;;;;;;;24.10;72.10;;;;;;5066153;28;19924;-38
2023/07/14 11:45:21;;;;;;;;;;;24.10;72.10;;;;;;5084385;28;19908;-38
2023/07/14 11:47:47;;;;;;;;;;;24.10;72.00;;;;;;5084524;28;19976;-38
2023/07/14 11:50:18;;;;;;;;;;;24.10;72.00;;;;;;5065548;28;19919;-38
2023/07/14 11:53:20;;;;;;;;;;;24.10;72.10;;;;;;5083354;28;19909;-38
2023/07/14 11:55:48;;;;;;;;;;;24.10;72.00;;;;;;5020716;28;19913;-38
2023/07/14 11:58:17;;;;;;;;;;;24.10;72.00;;;;;;5032769;28;19914;-38
2023/07/14 12:00:47;;;;;;;;;;;24.10;72.30;;;;;;5004492;28;19949;-39
2023/07/14 12:03:25;;;;;;;;;;;24.10;72.30;;;;;;5022057;28;19913;-39
2023/07/14 12:06:16;;;;;;;;;;;24.10;72.30;;;;;;5021222;28;19913;-38
2023/07/14 12:08:42;;;;;;;;;;;24.10;72.30;;;;;;4944883;28;1720569;-38
2023/07/14 12:11:27;;;;;;;;;;;24.10;72.40;;;;;;5022497;28;20028;-38
2023/07/14 12:13:53;;;;;;;;;;;24.10;72.50;;;;;;5017791;28;19910;-38
2023/07/14 12:16:28;;;;;;;;;;;24.00;72.30;;;;;;5019153;28;19920;-39
2023/07/14 12:18:55;;;;;;;;;;;24.10;72.30;;;;;;5021985;28;19916;-38
2023/07/14 12:21:33;;;;;;;;;;;24.00;72.10;;;;;;5017316;28;19917;-38
2023/07/14 12:24:00;;;;;;;;;;;24.10;72.30;;;;;;5016162;28;19980;-38
2023/07/14 12:26:31;;;;;;;;;;;24.00;72.10;;;;;;5022442;28;19917;-38
2023/07/14 12:29:00;;;;;;;;;;;24.00;72.10;;;;;;5022943;28;19913;-38
2023/07/14 12:31:26;;;;;;;;;;;24.00;72.10;;;;;;5084464;28;20284;-39
2023/07/14 12:33:54;;;;;;;;;;;24.10;72.10;;;;;;5066783;28;19919;-38
2023/07/14 12:36:20;;;;;;;;;;;24.00;72.10;;;;;;5084597;28;19932;-38
2023/07/14 12:38:47;;;;;;;;;;;24.10;72.30;;;;;;5083469;28;19912;-39
2023/07/14 12:41:14;;;;;;;;;;;24.10;72.50;;;;;;5084623;28;19927;-38
2023/07/14 12:43:43;;;;;;;;;;;24.10;72.60;;;;;;5084046;28;19919;-38
2023/07/14 12:46:11;;;;;;;;;;;24.10;72.60;;;;;;5084174;28;19994;-38
2023/07/14 12:48:37;;;;;;;;;;;24.00;72.50;;;;;;5082601;28;19912;-38
2023/07/14 12:51:11;;;;;;;;;;;24.10;72.90;;;;;;5083769;28;19908;-38
2023/07/14 12:53:40;;;;;;;;;;;24.10;72.70;;;;;;5065970;28;19912;-38
2023/07/14 12:56:06;;;;;;;;;;;24.00;72.70;;;;;;5084149;28;19908;-39
2023/07/14 12:58:32;;;;;;;;;;;24.10;72.90;;;;;;5059159;28;19908;-38
2023/07/14 13:00:58;;;;;;;;;;;24.10;72.90;;;;;;5064899;28;19938;-38
2023/07/14 13:03:24;;;;;;;;;;;24.10;72.80;;;;;;5083528;28;20010;-38
2023/07/14 13:05:51;;;;;;;;;;;24.10;72.80;;;;;;5082832;28;19908;-39
2023/07/14 13:08:27;;;;;;;;;;;24.10;72.70;;;;;;5083580;28;19916;-38
2023/07/14 13:10:53;;;;;;;;;;;24.10;72.70;;;;;;5083570;28;19912;-38
2023/07/14 13:13:20;;;;;;;;;;;24.10;72.60;;;;;;5083405;28;19920;-39
2023/07/14 13:15:47;;;;;;;;;;;24.10;72.60;;;;;;5083443;28;19920;-38
2023/07/14 13:18:18;;;;;;;;;;;24.10;72.60;;;;;;5083847;28;19919;-38
2023/07/14 13:20:44;;;;;;;;;;;24.10;72.50;;;;;;5065155;28;19917;-38
2023/07/14 13:23:10;;;;;;;;;;;24.10;72.60;;;;;;5070909;28;19950;-38
2023/07/14 13:25:43;;;;;;;;;;;24.10;72.70;;;;;;5069314;28;19919;-38
2023/07/14 13:28:32;;;;;;;;;;;24.10;73.00;;;;;;5072886;28;20357;-39
2023/07/14 13:31:18;;;;;;;;;;;24.10;73.30;;;;;;5073242;28;19908;-38
2023/07/14 13:33:44;;;;;;;;;;;24.10;73.30;;;;;;5069232;28;19913;-38
2023/07/14 13:36:23;;;;;;;;;;;24.10;73.40;;;;;;5049801;28;19923;-39
2023/07/14 13:38:49;;;;;;;;;;;24.10;73.30;;;;;;5069629;28;19927;-38
2023/07/14 13:41:16;;;;;;;;;;;24.10;74.10;;;;;;5052767;28;19920;-38
2023/07/14 13:43:44;;;;;;;;;;;24.10;73.50;;;;;;5071624;28;19916;-38
2023/07/14 13:46:15;;;;;;;;;;;24.10;73.30;;;;;;5053307;28;19916;-38
2023/07/14 13:48:42;;;;;;;;;;;24.10;73.10;;;;;;5069802;28;19912;-38
2023/07/14 13:51:16;;;;;;;;;;;24.20;73.10;;;;;;5069907;28;19912;-39
2023/07/14 13:53:42;;;;;;;;;;;24.20;73.00;;;;;;5082658;28;19917;-37
2023/07/14 13:56:12;;;;;;;;;;;24.20;73.10;;;;;;5083012;28;20277;-39
2023/07/14 13:58:38;;;;;;;;;;;24.20;73.20;;;;;;5061709;28;19920;-39
2023/07/14 14:01:04;;;;;;;;;;;24.20;73.30;;;;;;5083477;28;19917;-38
2023/07/14 14:03:31;;;;;;;;;;;24.20;73.30;;;;;;5083069;28;19922;-38
2023/07/14 14:05:57;;;;;;;;;;;24.20;73.30;;;;;;5078825;28;19954;-38
2023/07/14 14:08:24;;;;;;;;;;;24.20;73.50;;;;;;5064305;28;19916;-39
2023/07/14 14:10:51;;;;;;;;;;;24.30;73.60;;;;;;5081204;28;19912;-39
2023/07/14 14:13:17;;;;;;;;;;;24.30;73.70;;;;;;5082667;28;19961;-39
2023/07/14 14:15:44;;;;;;;;;;;24.30;73.70;;;;;;5082841;28;20277;-39
2023/07/14 14:18:30;;;;;;;;;;;24.30;73.80;;;;;;5083352;28;19912;-38
2023/07/14 14:20:56;;;;;;;;;;;24.30;73.90;;;;;;5075909;28;19958;-38
2023/07/14 14:23:21;;;;;;;;;;;24.30;74.00;;;;;;5082779;28;19912;-39